createdAt,value
2023-01-08T00:01:17.840Z,27.40
2023-01-08T00:03:45.149Z,31.00
2023-01-08T00:06:15.316Z,30.40
2023-01-08T00:08:42.746Z,26.00
2023-01-08T00:11:10.079Z,21.20
2023-01-08T00:13:37.217Z,14.00
2023-01-08T00:16:17.707Z,7.40
2023-01-08T00:18:45.731Z,4.40
2023-01-08T00:21:13.011Z,4.00
2023-01-08T00:23:39.979Z,1.10
2023-01-08T00:26:09.302Z,1.00
2023-01-08T00:28:36.509Z,1.00
2023-01-08T00:31:04.856Z,1.00
2023-01-08T00:33:32.308Z,1.00
2023-01-08T00:35:59.465Z,1.00
2023-01-08T00:38:29.879Z,1.00
2023-01-08T00:40:56.742Z,1.00
2023-01-08T00:43:24.786Z,1.00
2023-01-08T00:45:54.734Z,1.00
2023-01-08T00:48:27.666Z,1.00
2023-01-08T00:50:55.098Z,1.00
2023-01-08T00:53:22.776Z,1.00
2023-01-08T00:55:50.116Z,1.00
2023-01-08T00:58:16.971Z,1.00
2023-01-08T01:00:43.825Z,1.00
2023-01-08T01:03:10.671Z,1.00
2023-01-08T01:05:37.559Z,1.00
2023-01-08T01:08:04.704Z,1.00
2023-01-08T01:10:31.543Z,1.00
2023-01-08T01:12:58.619Z,1.00
2023-01-08T01:15:26.102Z,1.00
2023-01-08T01:17:52.953Z,1.00
2023-01-08T01:20:19.880Z,1.00
2023-01-08T01:22:46.816Z,1.00
2023-01-08T01:25:13.696Z,1.00
2023-01-08T01:27:40.809Z,1.00
2023-01-08T01:30:09.316Z,1.00
2023-01-08T01:32:36.171Z,1.00
2023-01-08T01:35:03.495Z,1.00
2023-01-08T01:37:30.396Z,1.00
2023-01-08T01:39:57.999Z,1.00
2023-01-08T01:42:40.107Z,1.00
2023-01-08T01:45:22.715Z,1.00
2023-01-08T01:48:01.321Z,1.00
2023-01-08T01:50:35.755Z,1.00
2023-01-08T01:53:21.956Z,1.00
2023-01-08T01:55:49.732Z,1.00
2023-01-08T01:58:19.114Z,1.00
2023-01-08T02:00:46.430Z,1.00
2023-01-08T02:03:15.383Z,1.00
2023-01-08T02:05:48.178Z,1.00
2023-01-08T02:08:39.131Z,1.00
2023-01-08T02:11:11.404Z,1.00
2023-01-08T02:13:43.048Z,1.00
2023-01-08T02:16:37.505Z,1.00
2023-01-08T02:19:20.119Z,1.00
2023-01-08T02:22:03.551Z,1.00
2023-01-08T02:24:46.760Z,1.00
2023-01-08T02:27:16.205Z,1.00
2023-01-08T02:29:44.370Z,1.00
2023-01-08T02:32:11.670Z,1.00
2023-01-08T02:34:38.508Z,1.00
2023-01-08T02:37:05.588Z,1.00
2023-01-08T02:39:38.435Z,1.00
2023-01-08T02:42:16.537Z,1.00
2023-01-08T02:45:09.578Z,1.00
2023-01-08T02:47:39.478Z,1.00
2023-01-08T02:50:15.521Z,1.00
2023-01-08T02:52:56.558Z,1.00
2023-01-08T02:55:25.574Z,1.00
2023-01-08T02:57:53.227Z,1.00
2023-01-08T03:00:20.936Z,1.00
2023-01-08T03:02:51.379Z,1.00
2023-01-08T03:05:26.547Z,1.00
2023-01-08T03:07:54.801Z,1.00
2023-01-08T03:10:24.934Z,1.00
2023-01-08T03:12:57.503Z,1.00
2023-01-08T03:15:49.783Z,1.00
2023-01-08T03:18:21.488Z,1.00
2023-01-08T03:20:50.141Z,1.00
2023-01-08T03:23:19.702Z,1.00
2023-01-08T03:25:48.556Z,1.00
2023-01-08T03:28:30.572Z,1.00
2023-01-08T03:30:59.188Z,1.00
2023-01-08T03:33:28.020Z,1.00
2023-01-08T03:35:57.385Z,1.00
2023-01-08T03:38:29.376Z,1.00
2023-01-08T03:41:07.337Z,1.00
2023-01-08T03:43:34.290Z,1.00
2023-01-08T03:46:05.180Z,1.00
2023-01-08T03:48:34.273Z,1.00
2023-01-08T03:51:01.181Z,1.00
2023-01-08T03:53:28.469Z,1.00
2023-01-08T03:55:56.772Z,1.00
2023-01-08T03:58:23.603Z,1.00
2023-01-08T04:00:50.465Z,1.00
2023-01-08T04:03:17.278Z,1.00
2023-01-08T04:05:44.152Z,1.00
2023-01-08T04:08:10.976Z,1.00
2023-01-08T04:10:37.917Z,1.00
2023-01-08T04:13:04.773Z,1.00
2023-01-08T04:15:31.818Z,1.00
2023-01-08T04:17:58.731Z,1.00
2023-01-08T04:20:25.558Z,1.00
2023-01-08T04:22:52.375Z,1.00
2023-01-08T04:25:19.501Z,1.00
2023-01-08T04:27:46.350Z,1.00
2023-01-08T04:30:13.516Z,1.00
2023-01-08T04:32:40.589Z,1.00
2023-01-08T04:35:07.663Z,1.00
2023-01-08T04:37:34.506Z,1.00
2023-01-08T04:40:01.400Z,1.00
2023-01-08T04:42:28.272Z,1.00
2023-01-08T04:44:55.156Z,1.00
2023-01-08T04:47:22.039Z,1.00
2023-01-08T04:49:48.844Z,1.00
2023-01-08T04:52:15.670Z,1.00
2023-01-08T04:54:42.489Z,1.00
2023-01-08T04:57:09.393Z,1.00
2023-01-08T04:59:36.258Z,1.00
2023-01-08T05:02:03.329Z,1.00
2023-01-08T05:04:30.422Z,1.00
2023-01-08T05:06:57.244Z,1.00
2023-01-08T05:09:24.091Z,1.00
2023-01-08T05:11:50.962Z,1.00
2023-01-08T05:14:17.812Z,99.90
2023-01-08T05:16:44.670Z,99.90
2023-01-08T05:19:11.524Z,99.90
2023-01-08T05:21:38.386Z,99.90
2023-01-08T05:24:05.536Z,99.90
2023-01-08T05:26:32.900Z,99.90
2023-01-08T05:28:59.797Z,99.90
2023-01-08T05:31:26.956Z,99.90
2023-01-08T05:33:53.975Z,99.90
2023-01-08T05:36:20.882Z,99.90
2023-01-08T05:38:47.788Z,99.90
2023-01-08T05:41:14.723Z,99.90
2023-01-08T05:43:41.620Z,99.90
2023-01-08T05:46:08.712Z,99.90
2023-01-08T05:48:37.334Z,99.90
2023-01-08T05:51:04.987Z,99.90
2023-01-08T05:53:33.076Z,99.90
2023-01-08T05:56:06.618Z,99.90
2023-01-08T05:58:34.808Z,99.90
2023-01-08T06:01:13.032Z,1.00
2023-01-08T06:03:40.101Z,1.00
2023-01-08T06:06:07.823Z,1.00
2023-01-08T06:08:35.227Z,1.00
2023-01-08T06:11:04.270Z,1.00
2023-01-08T06:13:31.642Z,1.00
2023-01-08T06:16:00.356Z,1.00
2023-01-08T06:18:28.268Z,1.00
2023-01-08T06:20:55.281Z,1.00
2023-01-08T06:23:22.147Z,1.00
2023-01-08T06:25:54.193Z,1.00
2023-01-08T06:28:21.091Z,1.00
2023-01-08T06:30:48.350Z,1.00
2023-01-08T06:33:15.827Z,1.00
2023-01-08T06:35:42.686Z,1.00
2023-01-08T06:38:09.736Z,1.00
2023-01-08T06:40:36.637Z,1.00
2023-01-08T06:43:05.533Z,1.00
2023-01-08T06:45:33.200Z,1.00
2023-01-08T06:48:04.766Z,1.00
2023-01-08T06:50:33.291Z,1.00
2023-01-08T06:53:00.449Z,1.00
2023-01-08T06:55:27.592Z,1.00
2023-01-08T06:57:58.618Z,1.00
2023-01-08T07:00:27.411Z,1.00
2023-01-08T07:02:55.207Z,1.00
2023-01-08T07:05:22.755Z,1.00
2023-01-08T07:07:50.140Z,1.00
2023-01-08T07:10:19.781Z,1.00
2023-01-08T07:12:47.122Z,1.00
2023-01-08T07:15:14.160Z,1.00
2023-01-08T07:17:41.127Z,1.00
2023-01-08T07:20:09.725Z,1.00
2023-01-08T07:22:36.584Z,1.00
2023-01-08T07:25:05.127Z,1.00
2023-01-08T07:27:31.954Z,1.00
2023-01-08T07:29:59.212Z,1.00
2023-01-08T07:32:26.050Z,1.00
2023-01-08T07:34:54.766Z,1.00
2023-01-08T07:37:21.706Z,1.00
2023-01-08T07:39:48.701Z,1.00
2023-01-08T07:42:15.557Z,1.00
2023-01-08T07:44:42.389Z,1.00
2023-01-08T07:47:09.201Z,1.00
2023-01-08T07:49:36.056Z,1.00
2023-01-08T07:52:02.893Z,1.00
2023-01-08T07:54:29.722Z,1.00
2023-01-08T07:56:56.580Z,1.00
2023-01-08T07:59:23.387Z,1.00
2023-01-08T08:01:50.295Z,1.00
2023-01-08T08:04:17.360Z,1.00
2023-01-08T08:06:44.241Z,1.00
2023-01-08T08:09:11.039Z,1.00
2023-01-08T08:11:39.079Z,1.00
2023-01-08T08:14:06.010Z,1.00
2023-01-08T08:16:33.040Z,1.00
2023-01-08T08:19:00.465Z,1.00
2023-01-08T08:21:29.425Z,1.00
2023-01-08T08:23:56.972Z,1.00
2023-01-08T08:26:24.255Z,1.00
2023-01-08T08:28:51.188Z,1.00
2023-01-08T08:31:18.049Z,1.00
2023-01-08T08:33:44.891Z,1.00
2023-01-08T08:36:11.815Z,1.00
2023-01-08T08:38:39.911Z,1.00
2023-01-08T08:41:07.442Z,1.00
2023-01-08T08:43:34.349Z,1.00
2023-01-08T08:46:01.194Z,7.00
2023-01-08T08:48:28.163Z,18.00
2023-01-08T08:50:55.101Z,30.00
2023-01-08T08:53:21.918Z,41.70
2023-01-08T08:55:48.756Z,58.90
2023-01-08T08:58:15.669Z,63.10
2023-01-08T09:00:43.534Z,91.30
2023-01-08T09:03:17.198Z,97.60
2023-01-08T09:05:44.215Z,99.90
2023-01-08T09:08:12.090Z,99.90
2023-01-08T09:10:42.373Z,99.90
2023-01-08T09:13:09.658Z,99.90
2023-01-08T09:15:37.919Z,99.90
2023-01-08T09:18:05.301Z,99.90
2023-01-08T09:20:32.385Z,99.90
2023-01-08T09:23:00.683Z,99.90
2023-01-08T09:25:28.114Z,99.90
2023-01-08T09:28:06.198Z,99.90
2023-01-08T09:30:33.266Z,99.90
2023-01-08T09:33:02.956Z,99.90
2023-01-08T09:35:30.854Z,99.90
2023-01-08T09:37:58.074Z,99.90
2023-01-08T09:40:32.435Z,99.90
2023-01-08T09:43:02.067Z,99.90
2023-01-08T09:45:31.718Z,99.90
2023-01-08T09:48:02.231Z,99.90
2023-01-08T09:50:30.542Z,99.90
2023-01-08T09:52:57.884Z,99.90
2023-01-08T09:55:25.455Z,99.90
2023-01-08T09:57:52.524Z,99.90
2023-01-08T10:00:29.370Z,99.90
2023-01-08T10:02:57.881Z,99.90
2023-01-08T10:05:27.861Z,99.90
2023-01-08T10:07:54.751Z,99.90
2023-01-08T10:10:30.663Z,99.90
2023-01-08T10:12:58.550Z,99.90
2023-01-08T10:15:26.004Z,99.90
2023-01-08T10:17:55.535Z,99.90
2023-01-08T10:20:24.620Z,99.90
2023-01-08T10:22:54.440Z,99.90
2023-01-08T10:25:24.439Z,99.90
2023-01-08T10:28:03.135Z,99.90
2023-01-08T10:30:42.530Z,99.90
2023-01-08T10:33:26.897Z,99.90
2023-01-08T10:36:06.564Z,99.90
2023-01-08T10:38:37.822Z,99.90
2023-01-08T10:41:09.486Z,99.90
2023-01-08T10:43:47.666Z,99.90
2023-01-08T10:46:36.550Z,99.90
2023-01-08T10:49:06.397Z,99.90
2023-01-08T10:51:33.778Z,99.90
2023-01-08T10:54:15.436Z,99.90
2023-01-08T10:56:44.472Z,99.90
2023-01-08T10:59:21.399Z,99.90
2023-01-08T11:01:50.376Z,99.90
2023-01-08T11:04:32.740Z,99.90
2023-01-08T11:07:05.783Z,99.90
2023-01-08T11:09:46.073Z,99.90
2023-01-08T11:12:23.666Z,99.90
2023-01-08T11:14:51.821Z,99.90
2023-01-08T11:17:18.748Z,99.90
2023-01-08T11:19:45.642Z,99.90
2023-01-08T11:22:20.811Z,99.90
2023-01-08T11:24:49.353Z,99.90
2023-01-08T11:27:17.146Z,99.90
2023-01-08T11:29:49.746Z,99.90
2023-01-08T11:32:19.598Z,99.90
2023-01-08T11:34:54.358Z,99.90
2023-01-08T11:37:24.578Z,99.90
2023-01-08T11:39:53.272Z,99.90
2023-01-08T11:42:29.106Z,99.90
2023-01-08T11:45:21.312Z,99.90
2023-01-08T11:48:09.062Z,99.90
2023-01-08T11:50:38.072Z,99.90
2023-01-08T11:53:23.517Z,99.90
2023-01-08T11:56:01.112Z,99.90
2023-01-08T11:58:55.212Z,99.90
2023-01-08T12:01:46.096Z,99.90
2023-01-08T12:04:45.144Z,99.90
2023-01-08T12:07:43.012Z,99.90
2023-01-08T12:10:21.615Z,99.90
2023-01-08T12:13:46.995Z,99.90
2023-01-08T12:16:47.965Z,99.90
2023-01-08T12:19:39.549Z,99.90
2023-01-08T12:22:25.378Z,88.30
2023-01-08T12:25:03.818Z,61.20
2023-01-08T12:27:56.450Z,24.40
2023-01-08T12:30:26.678Z,1.00
2023-01-08T12:33:09.364Z,1.00
2023-01-08T12:35:44.965Z,1.00
2023-01-08T12:38:19.092Z,1.00
2023-01-08T12:40:51.796Z,1.00
2023-01-08T12:43:33.475Z,1.00
2023-01-08T12:46:02.797Z,1.00
2023-01-08T12:48:33.626Z,1.00
2023-01-08T12:51:18.466Z,1.00
2023-01-08T12:54:25.233Z,1.00
2023-01-08T12:57:07.359Z,1.00
2023-01-08T12:59:44.990Z,1.00
2023-01-08T13:02:17.343Z,1.00
2023-01-08T13:04:46.320Z,1.00
2023-01-08T13:07:26.519Z,1.00
2023-01-08T13:10:08.953Z,1.00
2023-01-08T13:12:41.057Z,1.00
2023-01-08T13:15:08.903Z,1.00
2023-01-08T13:17:38.076Z,1.00
2023-01-08T13:20:07.281Z,1.00
2023-01-08T13:22:36.959Z,1.00
2023-01-08T13:25:17.092Z,1.00
2023-01-08T13:27:45.675Z,1.00
2023-01-08T13:30:31.574Z,1.00
2023-01-08T13:32:58.736Z,1.00
2023-01-08T13:35:29.569Z,1.00
2023-01-08T13:38:12.627Z,1.00
2023-01-08T13:40:46.433Z,1.00
2023-01-08T13:43:40.088Z,1.00
2023-01-08T13:46:18.743Z,1.00
2023-01-08T13:49:06.961Z,1.00
2023-01-08T13:51:43.930Z,1.00
2023-01-08T13:54:14.798Z,1.00
2023-01-08T13:56:43.022Z,1.00
2023-01-08T13:59:36.156Z,1.00
2023-01-08T14:02:03.550Z,1.00
2023-01-08T14:04:30.495Z,1.00
2023-01-08T14:07:15.813Z,1.00
2023-01-08T14:09:42.698Z,1.00
2023-01-08T14:12:20.423Z,1.00
2023-01-08T14:14:58.873Z,1.00
2023-01-08T14:17:32.173Z,1.00
2023-01-08T14:19:59.806Z,1.00
2023-01-08T14:22:33.762Z,1.00
2023-01-08T14:25:06.457Z,1.00
2023-01-08T14:27:33.947Z,1.00
2023-01-08T14:30:01.273Z,1.00
2023-01-08T14:32:29.982Z,1.00
2023-01-08T14:34:59.781Z,1.00
2023-01-08T14:37:26.769Z,1.00
2023-01-08T14:39:55.103Z,1.00
2023-01-08T14:42:42.281Z,1.00
2023-01-08T14:45:28.424Z,1.00
2023-01-08T14:48:17.343Z,1.00
2023-01-08T14:50:53.809Z,1.00
2023-01-08T14:53:28.832Z,1.00
2023-01-08T14:55:57.736Z,1.00
2023-01-08T14:58:34.225Z,1.00
2023-01-08T15:01:05.381Z,1.00
2023-01-08T15:03:34.651Z,1.00
2023-01-08T15:06:01.816Z,1.00
2023-01-08T15:08:43.284Z,1.00
2023-01-08T15:11:19.314Z,1.00
2023-01-08T15:13:48.187Z,1.00
2023-01-08T15:16:39.129Z,9.80
2023-01-08T15:19:07.898Z,18.40
2023-01-08T15:21:35.797Z,22.40
2023-01-08T15:24:04.777Z,25.70
2023-01-08T15:26:32.063Z,31.90
2023-01-08T15:29:04.256Z,36.50
2023-01-08T15:31:47.123Z,36.00
2023-01-08T15:34:19.753Z,43.40
2023-01-08T15:36:49.376Z,43.50
2023-01-08T15:39:16.217Z,52.50
2023-01-08T15:42:01.645Z,57.00
2023-01-08T15:44:28.496Z,64.60
2023-01-08T15:46:55.504Z,67.40
2023-01-08T15:49:22.326Z,65.30
2023-01-08T15:51:51.397Z,72.50
2023-01-08T15:54:20.714Z,72.80
2023-01-08T15:56:47.545Z,68.10
2023-01-08T15:59:14.391Z,77.00
2023-01-08T16:01:41.329Z,73.80
2023-01-08T16:04:08.426Z,68.70
2023-01-08T16:06:36.314Z,60.50
2023-01-08T16:09:03.657Z,57.60
2023-01-08T16:11:30.595Z,59.00
2023-01-08T16:13:57.416Z,51.40
2023-01-08T16:16:24.723Z,48.80
2023-01-08T16:18:52.558Z,44.50
2023-01-08T16:21:19.498Z,48.90
2023-01-08T16:23:46.337Z,41.00
2023-01-08T16:26:15.074Z,36.30
2023-01-08T16:28:42.527Z,37.30
2023-01-08T16:31:09.992Z,35.20
2023-01-08T16:33:37.601Z,28.90
2023-01-08T16:36:07.765Z,35.70
2023-01-08T16:38:35.421Z,32.90
2023-01-08T16:41:02.397Z,31.30
2023-01-08T16:43:30.830Z,23.80
2023-01-08T16:46:03.165Z,25.80
2023-01-08T16:48:30.825Z,19.20
2023-01-08T16:51:05.474Z,18.20
2023-01-08T16:53:33.118Z,16.00
2023-01-08T16:56:00.434Z,10.00
2023-01-08T16:58:27.405Z,10.60
2023-01-08T17:00:54.309Z,8.70
2023-01-08T17:03:21.531Z,6.80
2023-01-08T17:05:49.074Z,8.70
2023-01-08T17:08:16.961Z,4.60
2023-01-08T17:10:44.279Z,4.10
2023-01-08T17:13:11.302Z,4.70
2023-01-08T17:15:39.789Z,3.10
2023-01-08T17:18:06.676Z,2.50
2023-01-08T17:20:33.591Z,3.60
2023-01-08T17:23:01.597Z,1.60
2023-01-08T17:25:28.574Z,4.70
2023-01-08T17:27:55.469Z,4.20
2023-01-08T17:30:22.393Z,3.70
2023-01-08T17:32:49.232Z,5.30
2023-01-08T17:35:16.165Z,1.00
2023-01-08T17:37:42.992Z,2.20
2023-01-08T17:40:10.474Z,3.20
2023-01-08T17:42:39.328Z,1.00
2023-01-08T17:45:06.899Z,1.20
2023-01-08T17:47:35.069Z,1.00
2023-01-08T17:50:03.412Z,1.00
2023-01-08T17:52:30.214Z,1.00
2023-01-08T17:54:57.124Z,1.00
2023-01-08T17:57:24.063Z,1.00
2023-01-08T17:59:50.968Z,1.00
2023-01-08T18:02:18.399Z,1.00
2023-01-08T18:04:45.741Z,1.00
2023-01-08T18:07:12.848Z,1.00
2023-01-08T18:09:39.689Z,1.00
2023-01-08T18:12:07.021Z,1.00
2023-01-08T18:14:36.135Z,1.00
2023-01-08T18:17:03.350Z,1.00
2023-01-08T18:19:30.244Z,1.00
2023-01-08T18:21:57.267Z,1.00
2023-01-08T18:24:24.145Z,1.00
2023-01-08T18:26:51.127Z,1.00
2023-01-08T18:29:17.998Z,1.00
2023-01-08T18:31:46.325Z,1.00
2023-01-08T18:34:15.228Z,1.00
2023-01-08T18:36:42.307Z,1.00
2023-01-08T18:39:09.240Z,1.00
2023-01-08T18:41:54.932Z,1.00
2023-01-08T18:44:21.938Z,5.00
2023-01-08T18:46:48.864Z,11.40
2023-01-08T18:49:15.853Z,6.60
2023-01-08T18:51:43.057Z,11.40
2023-01-08T18:54:11.608Z,7.00
2023-01-08T18:56:38.980Z,11.40
2023-01-08T18:59:07.038Z,11.90
2023-01-08T19:01:35.413Z,12.80
2023-01-08T19:04:02.617Z,17.30
2023-01-08T19:06:29.566Z,18.20
2023-01-08T19:08:59.072Z,20.70
2023-01-08T19:11:26.144Z,18.50
2023-01-08T19:13:58.860Z,21.80
2023-01-08T19:16:26.695Z,22.80
2023-01-08T19:18:53.849Z,20.50
2023-01-08T19:21:20.872Z,19.10
2023-01-08T19:23:48.191Z,22.20
2023-01-08T19:26:15.624Z,19.60
2023-01-08T19:28:43.191Z,18.50
2023-01-08T19:31:13.774Z,19.10
2023-01-08T19:33:41.243Z,23.90
2023-01-08T19:36:12.691Z,25.50
2023-01-08T19:38:40.512Z,27.20
2023-01-08T19:41:30.592Z,24.20
2023-01-08T19:43:58.451Z,24.10
2023-01-08T19:46:25.910Z,24.20
2023-01-08T19:48:55.823Z,25.00
2023-01-08T19:51:22.717Z,29.80
2023-01-08T19:53:49.565Z,28.00
2023-01-08T19:56:16.478Z,27.20
2023-01-08T19:58:43.843Z,30.70
2023-01-08T20:01:16.420Z,29.60
2023-01-08T20:03:44.016Z,29.50
2023-01-08T20:06:19.623Z,31.20
2023-01-08T20:08:47.748Z,32.10
2023-01-08T20:11:16.681Z,33.50
2023-01-08T20:13:44.488Z,38.20
2023-01-08T20:16:17.392Z,39.50
2023-01-08T20:18:45.017Z,49.10
2023-01-08T20:21:17.081Z,42.80
2023-01-08T20:23:45.264Z,43.20
2023-01-08T20:26:15.949Z,42.40
2023-01-08T20:28:44.806Z,36.20
2023-01-08T20:31:19.507Z,42.60
2023-01-08T20:33:47.398Z,33.40
2023-01-08T20:36:23.595Z,32.60
2023-01-08T20:38:56.003Z,31.20
2023-01-08T20:41:24.462Z,35.00
2023-01-08T20:43:51.376Z,32.00
2023-01-08T20:46:18.315Z,42.60
2023-01-08T20:48:48.457Z,30.80
2023-01-08T20:51:16.195Z,32.60
2023-01-08T20:53:43.111Z,40.80
2023-01-08T20:56:15.055Z,42.90
2023-01-08T20:58:44.634Z,44.90
2023-01-08T21:01:14.799Z,51.40
2023-01-08T21:03:42.567Z,59.60
2023-01-08T21:06:16.123Z,63.60
2023-01-08T21:08:44.517Z,65.30
2023-01-08T21:11:12.600Z,70.20
2023-01-08T21:13:39.671Z,68.20
2023-01-08T21:16:10.014Z,70.50
2023-01-08T21:18:40.453Z,69.00
2023-01-08T21:21:08.097Z,67.20
2023-01-08T21:23:34.943Z,59.30
2023-01-08T21:26:07.388Z,64.90
2023-01-08T21:28:34.671Z,63.00
2023-01-08T21:31:11.657Z,58.90
2023-01-08T21:33:38.907Z,67.20
2023-01-08T21:36:13.919Z,67.80
2023-01-08T21:38:41.638Z,73.80
2023-01-08T21:41:11.845Z,77.20
2023-01-08T21:43:57.146Z,79.10
2023-01-08T21:46:27.512Z,78.10
2023-01-08T21:48:54.352Z,77.50
2023-01-08T21:51:39.569Z,86.70
2023-01-08T21:54:06.399Z,84.50
2023-01-08T21:56:33.412Z,94.00
2023-01-08T21:59:00.281Z,95.60
2023-01-08T22:01:27.225Z,98.90
2023-01-08T22:03:54.474Z,97.30
2023-01-08T22:06:21.345Z,99.90
2023-01-08T22:08:52.664Z,99.90
2023-01-08T22:11:19.861Z,99.90
2023-01-08T22:13:46.696Z,99.90
2023-01-08T22:16:13.733Z,99.90
2023-01-08T22:18:40.608Z,99.90
2023-01-08T22:21:09.807Z,99.90
2023-01-08T22:23:37.344Z,99.90
2023-01-08T22:26:09.889Z,99.90
2023-01-08T22:28:40.307Z,99.90
2023-01-08T22:31:11.810Z,99.90
2023-01-08T22:33:40.075Z,99.90
2023-01-08T22:36:10.811Z,99.90
2023-01-08T22:38:38.244Z,99.90
2023-01-08T22:41:10.831Z,99.90
2023-01-08T22:43:37.776Z,99.90
2023-01-08T22:46:04.743Z,99.90
2023-01-08T22:48:31.642Z,99.90
2023-01-08T22:51:03.390Z,99.90
2023-01-08T22:53:30.479Z,99.90
2023-01-08T22:55:57.332Z,99.90
2023-01-08T22:58:24.170Z,99.90
2023-01-08T23:00:51.025Z,99.90
2023-01-08T23:03:17.912Z,99.90
2023-01-08T23:05:44.853Z,99.90
2023-01-08T23:08:11.765Z,99.90
2023-01-08T23:10:38.802Z,99.90
2023-01-08T23:13:05.741Z,99.90
2023-01-08T23:15:32.560Z,99.90
2023-01-08T23:17:59.417Z,99.90
2023-01-08T23:20:26.269Z,99.90
2023-01-08T23:22:53.765Z,99.90
2023-01-08T23:25:20.680Z,99.90
2023-01-08T23:27:47.573Z,99.90
2023-01-08T23:30:14.500Z,99.90
2023-01-08T23:32:41.354Z,99.90
2023-01-08T23:35:08.554Z,99.90
2023-01-08T23:37:35.458Z,99.90
2023-01-08T23:40:02.349Z,99.90
2023-01-08T23:42:29.876Z,99.90
2023-01-08T23:44:56.832Z,99.90
2023-01-08T23:47:23.849Z,99.90
2023-01-08T23:49:50.752Z,99.90
2023-01-08T23:52:17.624Z,99.90
2023-01-08T23:54:44.481Z,99.90
2023-01-08T23:57:11.345Z,99.90
2023-01-08T23:59:38.298Z,99.90
